createdAt,value
2023-04-02T00:01:02.293Z,98982.75
2023-04-02T00:03:05.025Z,99002.03
2023-04-02T00:05:19.604Z,99005.22
2023-04-02T00:07:30.267Z,99007.97
2023-04-02T00:09:35.880Z,99019.59
2023-04-02T00:11:40.391Z,99020.22
2023-04-02T00:13:46.937Z,99022.66
2023-04-02T00:15:51.653Z,99018.03
2023-04-02T00:17:53.617Z,99020.31
2023-04-02T00:20:02.538Z,99038.44
2023-04-02T00:22:07.541Z,99039.50
2023-04-02T00:24:17.862Z,99048.56
2023-04-02T00:26:37.325Z,99052.22
2023-04-02T00:28:38.777Z,99054.94
2023-04-02T00:30:48.094Z,99058.56
2023-04-02T00:32:49.807Z,99062.03
2023-04-02T00:34:51.632Z,99073.31
2023-04-02T00:36:53.500Z,99068.72
2023-04-02T00:38:58.256Z,99070.09
2023-04-02T00:41:03.737Z,99082.78
2023-04-02T00:43:06.846Z,99075.75
2023-04-02T00:45:22.537Z,99084.03
2023-04-02T00:47:31.787Z,99091.28
2023-04-02T00:49:39.468Z,99095.53
2023-04-02T00:51:58.325Z,99102.63
2023-04-02T00:54:03.954Z,99099.38
2023-04-02T00:56:16.758Z,99108.25
2023-04-02T00:58:27.564Z,99105.63
2023-04-02T01:00:33.282Z,99114.31
2023-04-02T01:02:38.402Z,99115.31
2023-04-02T01:04:41.460Z,99122.19
2023-04-02T01:06:43.941Z,99125.25
2023-04-02T01:08:56.825Z,99135.13
2023-04-02T01:11:01.260Z,99133.50
2023-04-02T01:13:24.493Z,99143.78
2023-04-02T01:15:33.520Z,99150.25
2023-04-02T01:17:54.726Z,99150.06
2023-04-02T01:20:07.791Z,99152.47
2023-04-02T01:22:22.436Z,99153.50
2023-04-02T01:24:29.790Z,99149.25
2023-04-02T01:26:56.470Z,99162.16
2023-04-02T01:29:10.645Z,99169.84
2023-04-02T01:31:14.766Z,99172.06
2023-04-02T01:33:16.286Z,99174.47
2023-04-02T01:35:17.870Z,99180.53
2023-04-02T01:37:34.877Z,99189.81
2023-04-02T01:39:51.335Z,99195.88
2023-04-02T01:42:09.187Z,99196.28
2023-04-02T01:44:19.466Z,99199.91
2023-04-02T01:46:32.793Z,99209.75
2023-04-02T01:48:34.463Z,99213.81
2023-04-02T01:50:38.723Z,99218.44
2023-04-02T01:52:43.154Z,99230.94
2023-04-02T01:54:47.174Z,99225.25
2023-04-02T01:56:49.864Z,99230.94
2023-04-02T01:58:51.358Z,99240.03
2023-04-02T02:01:04.040Z,99238.97
2023-04-02T02:03:06.283Z,99241.59
2023-04-02T02:05:16.452Z,99249.28
2023-04-02T02:07:20.747Z,99247.66
2023-04-02T02:09:25.963Z,99251.69
2023-04-02T02:11:29.976Z,99252.69
2023-04-02T02:13:32.108Z,99258.13
2023-04-02T02:15:35.880Z,99257.50
2023-04-02T02:17:38.192Z,99262.34
2023-04-02T02:19:45.465Z,99262.34
2023-04-02T02:21:51.558Z,99261.53
2023-04-02T02:23:54.910Z,99272.81
2023-04-02T02:25:56.478Z,99266.16
2023-04-02T02:28:14.345Z,99271.81
2023-04-02T02:30:20.122Z,99280.66
2023-04-02T02:32:26.381Z,99290.31
2023-04-02T02:34:52.255Z,99295.97
2023-04-02T02:37:04.404Z,99296.78
2023-04-02T02:39:24.150Z,99307.25
2023-04-02T02:42:02.862Z,99304.63
2023-04-02T02:44:10.689Z,99312.69
2023-04-02T02:46:18.009Z,99316.88
2023-04-02T02:48:23.364Z,99319.31
2023-04-02T02:50:31.667Z,99318.25
2023-04-02T02:52:36.824Z,99323.25
2023-04-02T02:54:41.669Z,99330.94
2023-04-02T02:56:48.152Z,99336.59
2023-04-02T02:58:52.800Z,99331.75
2023-04-02T03:00:54.479Z,99338.66
2023-04-02T03:02:57.810Z,99347.25
2023-04-02T03:05:02.741Z,99351.06
2023-04-02T03:07:06.119Z,99342.59
2023-04-02T03:09:27.255Z,99350.44
2023-04-02T03:12:05.693Z,99354.09
2023-04-02T03:14:20.359Z,99355.47
2023-04-02T03:16:31.962Z,99364.88
2023-04-02T03:18:52.266Z,99370.63
2023-04-02T03:21:00.437Z,99376.59
2023-04-02T03:23:43.259Z,99380.41
2023-04-02T03:25:52.596Z,99386.47
2023-04-02T03:27:59.665Z,99390.91
2023-04-02T03:30:20.956Z,99401.13
2023-04-02T03:32:29.244Z,99401.50
2023-04-02T03:34:41.392Z,99406.13
2023-04-02T03:36:52.057Z,99408.56
2023-04-02T03:39:06.431Z,99409.50
2023-04-02T03:41:31.851Z,99420.56
2023-04-02T03:43:42.283Z,99429.16
2023-04-02T03:45:49.307Z,99435.19
2023-04-02T03:47:53.711Z,99437.38
2023-04-02T03:50:29.276Z,99423.75
2023-04-02T03:52:31.194Z,99441.88
2023-04-02T03:54:33.425Z,99445.50
2023-04-02T03:56:40.134Z,99455.75
2023-04-02T03:58:46.967Z,99464.00
2023-04-02T04:01:03.767Z,99466.44
2023-04-02T04:03:12.809Z,99476.84
2023-04-02T04:05:20.448Z,99476.63
2023-04-02T04:07:31.046Z,99485.75
2023-04-02T04:09:36.958Z,99486.13
2023-04-02T04:11:45.702Z,99482.25
2023-04-02T04:14:11.112Z,99491.53
2023-04-02T04:16:18.984Z,99492.97
2023-04-02T04:18:53.004Z,99492.78
2023-04-02T04:20:58.706Z,99511.03
2023-04-02T04:23:37.499Z,99514.03
2023-04-02T04:25:40.086Z,99519.44
2023-04-02T04:28:16.612Z,99522.81
2023-04-02T04:30:30.838Z,99520.81
2023-04-02T04:32:42.665Z,99530.56
2023-04-02T04:34:51.417Z,99538.94
2023-04-02T04:37:01.579Z,99536.72
2023-04-02T04:39:15.098Z,99550.44
2023-04-02T04:41:24.323Z,99551.81
2023-04-02T04:43:49.069Z,99558.06
2023-04-02T04:45:54.399Z,99567.50
2023-04-02T04:48:07.472Z,99567.34
2023-04-02T04:50:16.304Z,99575.78
2023-04-02T04:52:24.781Z,99582.22
2023-04-02T04:54:28.146Z,99589.44
2023-04-02T04:56:31.575Z,99594.63
2023-04-02T04:58:56.157Z,99597.94
2023-04-02T05:01:07.293Z,99602.19
2023-04-02T05:03:31.151Z,99598.75
2023-04-02T05:05:39.226Z,99615.72
2023-04-02T05:07:50.807Z,99621.47
2023-04-02T05:10:07.760Z,99623.09
2023-04-02T05:12:35.354Z,99630.22
2023-04-02T05:14:44.568Z,99637.72
2023-04-02T05:17:02.294Z,99642.38
2023-04-02T05:19:12.295Z,99650.78
2023-04-02T05:21:13.628Z,99649.97
2023-04-02T05:23:24.882Z,99656.28
2023-04-02T05:25:29.380Z,99664.47
2023-04-02T05:27:45.357Z,99671.34
2023-04-02T05:29:53.788Z,99670.06
2023-04-02T05:32:11.882Z,99683.59
2023-04-02T05:34:14.565Z,99696.00
2023-04-02T05:36:29.182Z,99699.34
2023-04-02T05:38:34.460Z,99698.16
2023-04-02T05:40:46.263Z,99698.88
2023-04-02T05:42:50.946Z,99707.06
2023-04-02T05:45:01.969Z,99711.78
2023-04-02T05:47:08.705Z,99710.69
2023-04-02T05:49:18.502Z,99720.78
2023-04-02T05:51:28.416Z,99721.44
2023-04-02T05:53:46.376Z,99719.69
2023-04-02T05:56:03.119Z,99720.66
2023-04-02T05:58:33.952Z,99728.59
2023-04-02T06:00:39.778Z,99735.00
2023-04-02T06:03:07.345Z,99734.66
2023-04-02T06:05:15.919Z,99741.34
2023-04-02T06:07:29.070Z,99751.00
2023-04-02T06:09:39.316Z,99747.09
2023-04-02T06:11:46.213Z,99755.47
2023-04-02T06:13:47.649Z,99761.59
2023-04-02T06:15:49.221Z,99765.75
2023-04-02T06:17:50.715Z,99765.22
2023-04-02T06:19:54.403Z,99774.16
2023-04-02T06:22:08.430Z,99778.00
2023-04-02T06:24:15.345Z,99781.47
2023-04-02T06:26:23.999Z,99793.84
2023-04-02T06:28:31.482Z,99799.31
2023-04-02T06:30:36.989Z,99797.78
2023-04-02T06:32:38.457Z,99813.31
2023-04-02T06:34:42.064Z,99805.25
2023-04-02T06:36:45.498Z,99816.06
2023-04-02T06:38:49.672Z,99812.03
2023-04-02T06:40:58.732Z,99827.69
2023-04-02T06:43:07.192Z,99826.25
2023-04-02T06:45:26.275Z,99834.72
2023-04-02T06:47:42.441Z,99832.94
2023-04-02T06:50:08.018Z,99852.84
2023-04-02T06:52:39.117Z,99841.88
2023-04-02T06:54:40.510Z,99847.28
2023-04-02T06:56:47.580Z,99852.00
2023-04-02T06:58:49.206Z,99852.28
2023-04-02T07:00:51.070Z,99861.78
2023-04-02T07:02:55.289Z,99867.50
2023-04-02T07:05:11.565Z,99870.56
2023-04-02T07:07:13.135Z,99876.03
2023-04-02T07:09:14.833Z,99885.63
2023-04-02T07:11:20.901Z,99887.47
2023-04-02T07:13:24.252Z,99894.19
2023-04-02T07:15:25.853Z,99895.09
2023-04-02T07:17:27.542Z,99902.66
2023-04-02T07:19:28.952Z,99905.25
2023-04-02T07:21:31.228Z,99911.75
2023-04-02T07:23:32.730Z,99911.53
2023-04-02T07:25:34.437Z,99917.34
2023-04-02T07:27:36.257Z,99924.38
2023-04-02T07:29:42.505Z,99930.41
2023-04-02T07:31:44.221Z,99927.78
2023-04-02T07:33:46.269Z,99940.13
2023-04-02T07:35:48.377Z,99936.41
2023-04-02T07:37:49.869Z,99941.97
2023-04-02T07:39:51.659Z,99950.59
2023-04-02T07:41:59.058Z,99951.72
2023-04-02T07:44:00.671Z,99949.69
2023-04-02T07:46:02.972Z,99958.84
2023-04-02T07:48:09.568Z,99967.66
2023-04-02T07:50:10.996Z,99970.28
2023-04-02T07:52:12.583Z,99972.50
2023-04-02T07:54:14.096Z,99979.69
2023-04-02T07:56:18.019Z,99987.53
2023-04-02T07:58:19.387Z,99983.06
2023-04-02T08:00:22.612Z,99984.72
2023-04-02T08:02:24.394Z,99988.13
2023-04-02T08:04:27.357Z,99990.88
2023-04-02T08:06:29.185Z,100010.63
2023-04-02T08:08:30.969Z,100002.66
2023-04-02T08:10:32.359Z,100013.94
2023-04-02T08:12:33.772Z,100015.56
2023-04-02T08:14:35.554Z,100016.25
2023-04-02T08:16:51.987Z,100023.75
2023-04-02T08:18:53.526Z,100028.97
2023-04-02T08:20:55.044Z,100032.41
2023-04-02T08:22:58.084Z,100039.94
2023-04-02T08:24:59.500Z,100036.31
2023-04-02T08:27:02.145Z,100040.91
2023-04-02T08:29:04.032Z,100045.41
2023-04-02T08:31:05.528Z,100044.81
2023-04-02T08:33:07.041Z,100049.50
2023-04-02T08:35:11.001Z,100059.22
2023-04-02T08:37:13.564Z,100055.16
2023-04-02T08:39:15.064Z,100067.22
2023-04-02T08:41:24.526Z,100075.50
2023-04-02T08:43:52.051Z,100074.91
2023-04-02T08:46:06.530Z,100077.06
2023-04-02T08:48:10.751Z,100083.94
2023-04-02T08:50:30.979Z,100075.03
2023-04-02T08:52:36.709Z,100087.13
2023-04-02T08:54:38.224Z,100091.31
2023-04-02T08:56:44.320Z,100098.88
2023-04-02T08:58:54.284Z,100098.41
2023-04-02T09:00:57.731Z,100094.97
2023-04-02T09:03:20.653Z,100102.91
2023-04-02T09:05:33.884Z,100105.06
2023-04-02T09:07:35.748Z,100112.78
2023-04-02T09:09:38.289Z,100112.31
2023-04-02T09:12:02.814Z,100119.63
2023-04-02T09:14:13.960Z,100121.47
2023-04-02T09:16:23.025Z,100130.81
2023-04-02T09:18:24.560Z,100133.34
2023-04-02T09:20:27.518Z,100134.81
2023-04-02T09:22:31.662Z,100134.75
2023-04-02T09:24:33.898Z,100136.16
2023-04-02T09:26:35.896Z,100138.44
2023-04-02T09:28:37.843Z,100145.97
2023-04-02T09:30:54.445Z,100152.06
2023-04-02T09:32:59.570Z,100152.94
2023-04-02T09:35:15.009Z,100157.31
2023-04-02T09:37:25.342Z,100154.19
2023-04-02T09:39:26.870Z,100160.09
2023-04-02T09:41:30.021Z,100157.06
2023-04-02T09:43:36.943Z,100170.28
2023-04-02T09:45:39.406Z,100180.75
2023-04-02T09:47:42.478Z,100174.50
2023-04-02T09:49:44.020Z,100182.06
2023-04-02T09:51:45.682Z,100177.13
2023-04-02T09:53:49.195Z,100190.53
2023-04-02T09:56:08.214Z,100186.00
2023-04-02T09:58:12.475Z,100193.47
2023-04-02T10:00:25.945Z,100199.91
2023-04-02T10:02:32.063Z,100197.88
2023-04-02T10:04:49.505Z,100205.59
2023-04-02T10:06:53.344Z,100211.00
2023-04-02T10:08:54.839Z,100222.38
2023-04-02T10:11:00.490Z,100224.88
2023-04-02T10:13:13.011Z,100222.75
2023-04-02T10:15:23.097Z,100225.28
2023-04-02T10:17:37.257Z,100235.31
2023-04-02T10:19:42.561Z,100239.25
2023-04-02T10:21:47.110Z,100237.22
2023-04-02T10:23:48.763Z,100251.97
2023-04-02T10:26:27.698Z,100244.97
2023-04-02T10:28:44.220Z,100255.09
2023-04-02T10:31:02.556Z,100255.88
2023-04-02T10:33:17.814Z,100258.09
2023-04-02T10:35:31.466Z,100266.59
2023-04-02T10:37:52.028Z,100263.97
2023-04-02T10:40:01.889Z,100277.72
2023-04-02T10:42:21.712Z,100278.47
2023-04-02T10:44:37.288Z,100282.84
2023-04-02T10:47:05.091Z,100289.25
2023-04-02T10:49:34.901Z,100287.16
2023-04-02T10:52:14.749Z,100288.59
2023-04-02T10:54:46.778Z,100297.41
2023-04-02T10:56:51.424Z,100298.00
2023-04-02T10:59:02.527Z,100295.84
2023-04-02T11:01:13.533Z,100300.31
2023-04-02T11:03:24.187Z,100291.41
2023-04-02T11:05:44.453Z,100298.09
2023-04-02T11:07:59.862Z,100293.13
2023-04-02T11:10:02.001Z,100308.47
2023-04-02T11:12:05.661Z,100299.81
2023-04-02T11:14:12.715Z,100312.25
2023-04-02T11:16:16.974Z,100302.63
2023-04-02T11:18:28.969Z,100317.97
2023-04-02T11:20:43.677Z,100326.66
2023-04-02T11:22:47.377Z,100322.34
2023-04-02T11:24:51.905Z,100332.09
2023-04-02T11:26:54.191Z,100330.28
2023-04-02T11:29:05.016Z,100335.78
2023-04-02T11:31:06.621Z,100340.72
2023-04-02T11:33:44.007Z,100352.31
2023-04-02T11:35:46.435Z,100347.91
2023-04-02T11:37:48.061Z,100364.56
2023-04-02T11:39:56.722Z,100362.94
2023-04-02T11:42:21.761Z,100361.06
2023-04-02T11:44:24.287Z,100369.13
2023-04-02T11:46:28.733Z,100374.91
2023-04-02T11:48:36.164Z,100384.03
2023-04-02T11:50:40.546Z,100389.94
2023-04-02T11:52:45.360Z,100391.81
2023-04-02T11:54:56.521Z,100391.66
2023-04-02T11:57:15.452Z,100385.88
2023-04-02T11:59:50.612Z,100392.03
2023-04-02T12:01:57.959Z,100398.06
2023-04-02T12:04:08.194Z,100393.75
2023-04-02T12:06:26.997Z,100400.47
2023-04-02T12:08:54.342Z,100396.31
2023-04-02T12:11:01.501Z,100405.19
2023-04-02T12:13:02.896Z,100405.72
2023-04-02T12:15:36.966Z,100403.88
2023-04-02T12:17:39.707Z,100411.28
2023-04-02T12:19:46.090Z,100412.78
2023-04-02T12:21:47.978Z,100413.97
2023-04-02T12:23:53.267Z,100415.41
2023-04-02T12:25:59.785Z,100417.25
2023-04-02T12:28:07.545Z,100421.47
2023-04-02T12:30:22.227Z,100426.00
2023-04-02T12:32:30.901Z,100418.81
2023-04-02T12:34:32.567Z,100427.72
2023-04-02T12:36:34.645Z,100414.13
2023-04-02T12:38:45.609Z,100428.78
2023-04-02T12:41:02.396Z,100424.63
2023-04-02T12:43:03.764Z,100434.16
2023-04-02T12:45:06.823Z,100435.69
2023-04-02T12:47:11.241Z,100439.34
2023-04-02T12:49:34.504Z,100432.44
2023-04-02T12:51:37.099Z,100437.03
2023-04-02T12:53:41.149Z,100437.66
2023-04-02T12:55:48.288Z,100442.28
2023-04-02T12:57:54.850Z,100446.63
2023-04-02T12:59:58.438Z,100448.34
2023-04-02T13:02:02.347Z,100451.16
2023-04-02T13:04:08.426Z,100443.84
2023-04-02T13:06:24.342Z,100446.03
2023-04-02T13:08:29.642Z,100457.06
2023-04-02T13:10:31.716Z,100449.56
2023-04-02T13:12:41.052Z,100449.50
2023-04-02T13:14:42.503Z,100462.25
2023-04-02T13:16:44.068Z,100460.63
2023-04-02T13:18:48.101Z,100458.38
2023-04-02T13:20:58.090Z,100462.44
2023-04-02T13:23:02.297Z,100472.44
2023-04-02T13:25:04.409Z,100465.34
2023-04-02T13:27:06.246Z,100462.06
2023-04-02T13:29:21.064Z,100465.72
2023-04-02T13:31:22.468Z,100455.38
2023-04-02T13:33:24.192Z,100456.19
2023-04-02T13:35:27.300Z,100462.38
2023-04-02T13:37:28.955Z,100459.72
2023-04-02T13:39:30.894Z,100462.25
2023-04-02T13:41:39.720Z,100463.16
2023-04-02T13:43:41.414Z,100466.84
2023-04-02T13:45:45.793Z,100465.38
2023-04-02T13:47:47.288Z,100458.53
2023-04-02T13:49:49.487Z,100464.59
2023-04-02T13:51:58.693Z,100465.16
2023-04-02T13:54:00.216Z,100474.78
2023-04-02T13:56:01.860Z,100465.25
2023-04-02T13:58:04.428Z,100469.50
2023-04-02T14:00:06.520Z,100481.31
2023-04-02T14:02:34.387Z,100479.19
2023-04-02T14:04:43.033Z,100483.44
2023-04-02T14:06:57.965Z,100482.50
2023-04-02T14:09:07.700Z,100487.34
2023-04-02T14:11:17.929Z,100495.59
2023-04-02T14:13:25.231Z,100485.28
2023-04-02T14:15:59.709Z,100491.22
2023-04-02T14:18:41.110Z,100484.00
2023-04-02T14:21:10.950Z,100497.34
2023-04-02T14:23:15.228Z,100503.13
2023-04-02T14:25:25.548Z,100506.66
2023-04-02T14:27:42.021Z,100501.66
2023-04-02T14:30:25.330Z,100507.72
2023-04-02T14:32:41.952Z,100510.03
2023-04-02T14:35:04.707Z,100512.06
2023-04-02T14:37:13.665Z,100516.13
2023-04-02T14:39:27.192Z,100510.22
2023-04-02T14:41:36.935Z,100519.78
2023-04-02T14:43:46.270Z,100520.53
2023-04-02T14:45:57.543Z,100527.44
2023-04-02T14:48:26.234Z,100527.72
2023-04-02T14:50:39.061Z,100527.16
2023-04-02T14:52:44.139Z,100530.63
2023-04-02T14:55:00.220Z,100539.28
2023-04-02T14:57:29.240Z,100533.69
2023-04-02T14:59:44.811Z,100539.63
2023-04-02T15:01:49.267Z,100543.34
2023-04-02T15:04:05.292Z,100534.34
2023-04-02T15:06:11.969Z,100539.31
2023-04-02T15:08:48.311Z,100532.38
2023-04-02T15:11:05.835Z,100547.59
2023-04-02T15:13:20.046Z,100548.88
2023-04-02T15:15:42.743Z,100550.69
2023-04-02T15:17:44.174Z,100560.63
2023-04-02T15:19:46.364Z,100553.75
2023-04-02T15:22:09.867Z,100550.13
2023-04-02T15:24:22.808Z,100551.69
2023-04-02T15:26:47.943Z,100555.13
2023-04-02T15:29:27.767Z,100553.31
2023-04-02T15:31:33.685Z,100564.22
2023-04-02T15:33:38.137Z,100560.50
2023-04-02T15:35:47.609Z,100564.56
2023-04-02T15:38:22.607Z,100568.34
2023-04-02T15:40:42.936Z,100567.66
2023-04-02T15:43:00.010Z,100567.81
2023-04-02T15:45:07.869Z,100580.09
2023-04-02T15:47:20.288Z,100570.03
2023-04-02T15:49:41.188Z,100582.75
2023-04-02T15:52:01.326Z,100586.63
2023-04-02T15:54:17.907Z,100579.03
2023-04-02T15:56:58.325Z,100576.41
2023-04-02T15:59:23.995Z,100583.91
2023-04-02T16:01:48.728Z,100581.28
2023-04-02T16:04:18.160Z,100600.09
2023-04-02T16:06:32.369Z,100600.75
2023-04-02T16:08:52.917Z,100617.47
2023-04-02T16:10:54.375Z,100613.66
2023-04-02T16:12:56.395Z,100617.69
2023-04-02T16:15:07.813Z,100625.38
2023-04-02T16:17:24.971Z,100609.19
2023-04-02T16:19:40.122Z,100626.66
2023-04-02T16:21:50.380Z,100633.56
2023-04-02T16:23:51.757Z,100632.25
2023-04-02T16:26:08.030Z,100632.50
2023-04-02T16:28:23.734Z,100632.53
2023-04-02T16:30:39.848Z,100624.59
2023-04-02T16:32:53.325Z,100641.69
2023-04-02T16:35:41.207Z,100643.41
2023-04-02T16:37:48.786Z,100653.56
2023-04-02T16:40:11.618Z,100658.56
2023-04-02T16:42:34.830Z,100665.59
2023-04-02T16:45:09.579Z,100664.47
2023-04-02T16:47:35.666Z,100671.03
2023-04-02T16:49:57.399Z,100679.06
2023-04-02T16:52:10.395Z,100686.97
2023-04-02T16:54:18.467Z,100684.09
2023-04-02T16:56:35.070Z,100696.84
2023-04-02T16:59:02.125Z,100693.06
2023-04-02T17:01:25.646Z,100700.66
2023-04-02T17:03:46.930Z,100695.03
2023-04-02T17:06:09.170Z,100703.03
2023-04-02T17:08:30.150Z,100706.16
2023-04-02T17:10:41.039Z,100708.75
2023-04-02T17:12:48.407Z,100712.41
2023-04-02T17:14:58.585Z,100712.16
2023-04-02T17:17:04.737Z,100724.97
2023-04-02T17:19:11.439Z,100725.41
2023-04-02T17:21:17.460Z,100723.91
2023-04-02T17:23:20.842Z,100723.50
2023-04-02T17:25:32.159Z,100726.81
2023-04-02T17:27:43.277Z,100735.38
2023-04-02T17:29:47.195Z,100741.13
2023-04-02T17:31:50.340Z,100737.34
2023-04-02T17:33:51.747Z,100739.91
2023-04-02T17:36:08.509Z,100751.16
2023-04-02T17:38:24.359Z,100749.88
2023-04-02T17:40:42.155Z,100751.16
2023-04-02T17:42:58.233Z,100753.31
2023-04-02T17:45:32.807Z,100755.47
2023-04-02T17:47:49.385Z,100756.31
2023-04-02T17:50:26.019Z,100764.19
2023-04-02T17:52:40.828Z,100759.28
2023-04-02T17:55:08.290Z,100765.84
2023-04-02T17:57:21.547Z,100765.00
2023-04-02T17:59:47.315Z,100772.69
2023-04-02T18:02:01.437Z,100768.59
2023-04-02T18:04:30.722Z,100765.81
2023-04-02T18:07:27.771Z,100768.72
2023-04-02T18:09:34.745Z,100772.94
2023-04-02T18:11:50.797Z,100775.41
2023-04-02T18:14:17.162Z,100773.72
2023-04-02T18:16:34.588Z,100784.66
2023-04-02T18:18:38.692Z,100788.38
2023-04-02T18:20:57.161Z,100798.66
2023-04-02T18:23:35.259Z,100797.97
2023-04-02T18:25:50.323Z,100802.84
2023-04-02T18:28:12.778Z,100802.78
2023-04-02T18:30:27.548Z,100800.09
2023-04-02T18:32:50.094Z,100802.69
2023-04-02T18:35:27.048Z,100813.25
2023-04-02T18:38:01.040Z,100805.50
2023-04-02T18:40:17.253Z,100812.44
2023-04-02T18:42:24.693Z,100822.25
2023-04-02T18:45:03.281Z,100818.94
2023-04-02T18:47:17.018Z,100817.63
2023-04-02T18:49:36.897Z,100821.16
2023-04-02T18:51:39.996Z,100821.75
2023-04-02T18:53:43.034Z,100824.81
2023-04-02T18:55:56.197Z,100829.13
2023-04-02T18:58:02.391Z,100820.94
2023-04-02T19:00:16.741Z,100827.94
2023-04-02T19:02:33.037Z,100828.38
2023-04-02T19:04:36.717Z,100832.44
2023-04-02T19:06:48.204Z,100833.00
2023-04-02T19:09:15.019Z,100845.53
2023-04-02T19:11:28.550Z,100849.88
2023-04-02T19:13:29.949Z,100843.94
2023-04-02T19:15:51.849Z,100846.72
2023-04-02T19:18:04.322Z,100851.44
2023-04-02T19:20:19.321Z,100850.91
2023-04-02T19:22:44.693Z,100860.66
2023-04-02T19:25:00.914Z,100861.34
2023-04-02T19:27:19.130Z,100865.22
2023-04-02T19:29:44.790Z,100871.97
2023-04-02T19:31:55.506Z,100867.31
2023-04-02T19:34:12.181Z,100867.91
2023-04-02T19:36:28.846Z,100871.75
2023-04-02T19:38:55.825Z,100874.81
2023-04-02T19:40:57.129Z,100873.00
2023-04-02T19:42:58.606Z,100878.00
2023-04-02T19:45:00.217Z,100882.84
2023-04-02T19:47:02.159Z,100884.75
2023-04-02T19:49:12.607Z,100879.94
2023-04-02T19:51:14.106Z,100873.50
2023-04-02T19:53:16.204Z,100883.53
2023-04-02T19:55:17.633Z,100880.09
2023-04-02T19:57:19.229Z,100885.50
2023-04-02T19:59:20.833Z,100885.91
2023-04-02T20:01:22.727Z,100887.97
2023-04-02T20:03:24.509Z,100892.09
2023-04-02T20:05:26.133Z,100891.03
2023-04-02T20:07:27.513Z,100896.34
2023-04-02T20:09:29.755Z,100892.13
2023-04-02T20:11:31.245Z,100895.81
2023-04-02T20:13:33.502Z,100898.72
2023-04-02T20:15:35.709Z,100892.81
2023-04-02T20:17:37.404Z,100898.03
2023-04-02T20:19:38.811Z,100895.00
2023-04-02T20:21:40.534Z,100903.25
2023-04-02T20:23:42.044Z,100902.56
2023-04-02T20:25:54.071Z,100907.34
2023-04-02T20:27:55.501Z,100909.16
2023-04-02T20:29:56.991Z,100913.69
2023-04-02T20:31:58.354Z,100917.41
2023-04-02T20:34:00.125Z,100920.94
2023-04-02T20:36:05.553Z,100932.09
2023-04-02T20:38:08.203Z,100929.19
2023-04-02T20:40:10.712Z,100930.16
2023-04-02T20:42:13.976Z,100933.84
2023-04-02T20:44:15.812Z,100934.28
2023-04-02T20:46:17.630Z,100942.50
2023-04-02T20:48:19.075Z,100945.22
2023-04-02T20:50:20.452Z,100937.41
2023-04-02T20:52:21.988Z,100937.94
2023-04-02T20:54:23.448Z,100941.22
2023-04-02T20:56:24.845Z,100938.06
2023-04-02T20:58:26.449Z,100944.38
2023-04-02T21:00:27.825Z,100943.56
2023-04-02T21:02:29.223Z,100946.44
2023-04-02T21:04:30.656Z,100947.25
2023-04-02T21:06:34.757Z,100946.56
2023-04-02T21:08:36.910Z,100951.22
2023-04-02T21:10:39.511Z,100954.38
2023-04-02T21:12:41.025Z,100950.25
2023-04-02T21:14:42.400Z,100957.41
2023-04-02T21:16:43.917Z,100957.53
2023-04-02T21:18:46.615Z,100963.69
2023-04-02T21:20:57.763Z,100959.44
2023-04-02T21:22:59.139Z,100965.06
2023-04-02T21:25:00.755Z,100966.44
2023-04-02T21:27:02.150Z,100968.09
2023-04-02T21:29:04.393Z,100967.25
2023-04-02T21:31:10.775Z,100970.00
2023-04-02T21:33:12.272Z,100973.69
2023-04-02T21:35:13.691Z,100974.53
2023-04-02T21:37:15.387Z,100977.69
2023-04-02T21:39:23.058Z,100975.59
2023-04-02T21:41:28.644Z,100965.88
2023-04-02T21:43:29.991Z,100971.91
2023-04-02T21:45:31.477Z,100972.31
2023-04-02T21:47:32.891Z,100974.19
2023-04-02T21:49:34.314Z,100968.19
2023-04-02T21:51:37.668Z,100973.25
2023-04-02T21:53:40.326Z,100966.66
2023-04-02T21:55:41.730Z,100977.34
2023-04-02T21:57:43.164Z,100974.31
2023-04-02T21:59:44.602Z,100972.09
2023-04-02T22:01:48.914Z,100972.22
2023-04-02T22:03:50.875Z,100969.88
2023-04-02T22:06:16.564Z,100975.22
2023-04-02T22:08:17.951Z,100982.63
2023-04-02T22:10:19.414Z,100988.09
2023-04-02T22:12:20.883Z,100984.66
2023-04-02T22:14:23.040Z,100981.47
2023-04-02T22:16:27.043Z,100981.59
2023-04-02T22:18:28.582Z,100986.25
2023-04-02T22:20:29.981Z,100984.84
2023-04-02T22:22:31.570Z,100987.59
2023-04-02T22:24:33.003Z,100993.88
2023-04-02T22:26:35.066Z,100990.59
2023-04-02T22:28:37.204Z,100996.63
2023-04-02T22:30:39.014Z,100996.88
2023-04-02T22:32:40.724Z,100999.03
2023-04-02T22:34:45.526Z,101006.84
2023-04-02T22:36:47.337Z,101010.38
2023-04-02T22:38:49.633Z,101009.69
2023-04-02T22:40:51.188Z,101016.78
2023-04-02T22:42:52.680Z,101016.00
2023-04-02T22:44:54.168Z,101015.28
2023-04-02T22:46:55.585Z,101020.63
2023-04-02T22:48:57.401Z,101023.91
2023-04-02T22:50:58.846Z,101032.66
2023-04-02T22:53:00.401Z,101025.94
2023-04-02T22:55:01.814Z,101024.81
2023-04-02T22:57:03.340Z,101039.16
2023-04-02T22:59:04.843Z,101033.34
2023-04-02T23:01:09.100Z,101044.84
2023-04-02T23:03:10.765Z,101032.91
2023-04-02T23:05:12.839Z,101042.75
2023-04-02T23:07:14.247Z,101043.81
2023-04-02T23:09:15.763Z,101044.06
2023-04-02T23:11:22.561Z,101046.91
2023-04-02T23:13:23.962Z,101053.19
2023-04-02T23:15:25.479Z,101055.22
2023-04-02T23:17:26.916Z,101045.06
2023-04-02T23:19:28.289Z,101041.88
2023-04-02T23:21:29.885Z,101043.66
2023-04-02T23:23:31.971Z,101037.03
2023-04-02T23:25:33.361Z,101041.41
2023-04-02T23:27:34.827Z,101044.16
2023-04-02T23:29:36.207Z,101047.69
2023-04-02T23:31:37.805Z,101051.47
2023-04-02T23:33:39.802Z,101057.75
2023-04-02T23:35:41.215Z,101057.19
2023-04-02T23:37:42.635Z,101067.00
2023-04-02T23:39:44.054Z,101063.69
2023-04-02T23:41:46.114Z,101064.59
2023-04-02T23:43:47.674Z,101068.53
2023-04-02T23:45:49.655Z,101069.00
2023-04-02T23:47:51.098Z,101059.78
2023-04-02T23:49:52.501Z,101061.69
2023-04-02T23:51:54.060Z,101061.91
2023-04-02T23:53:55.764Z,101060.50
2023-04-02T23:55:57.450Z,101067.59
2023-04-02T23:57:58.866Z,101067.84
